createdAt,value
2023-01-27T00:01:18.200Z,102727.38
2023-01-27T00:03:47.946Z,102735.91
2023-01-27T00:06:14.859Z,102728.28
2023-01-27T00:08:41.768Z,102721.63
2023-01-27T00:11:29.375Z,102719.28
2023-01-27T00:13:56.344Z,102724.38
2023-01-27T00:16:23.180Z,102731.19
2023-01-27T00:18:49.845Z,102733.72
2023-01-27T00:21:34.984Z,102717.72
2023-01-27T00:24:21.645Z,102726.19
2023-01-27T00:26:48.552Z,102718.53
2023-01-27T00:29:15.422Z,102729.56
2023-01-27T00:32:00.394Z,102727.91
2023-01-27T00:34:27.078Z,102732.09
2023-01-27T00:36:53.674Z,102723.63
2023-01-27T00:39:21.692Z,102730.38
2023-01-27T00:41:48.471Z,102745.72
2023-01-27T00:44:15.121Z,102733.09
2023-01-27T00:46:42.493Z,102734.00
2023-01-27T00:49:10.561Z,102737.38
2023-01-27T00:51:37.109Z,102740.81
2023-01-27T00:54:04.150Z,102745.09
2023-01-27T00:56:33.021Z,102736.72
2023-01-27T00:58:59.976Z,102734.91
2023-01-27T01:01:27.556Z,102742.53
2023-01-27T01:03:54.414Z,102742.44
2023-01-27T01:06:21.803Z,102739.19
2023-01-27T01:08:51.282Z,102736.72
2023-01-27T01:11:19.615Z,102746.88
2023-01-27T01:13:47.038Z,102743.53
2023-01-27T01:16:24.761Z,102747.69
2023-01-27T01:18:53.030Z,102752.78
2023-01-27T01:21:19.550Z,102754.50
2023-01-27T01:23:49.280Z,102748.72
2023-01-27T01:26:17.553Z,102756.34
2023-01-27T01:28:45.118Z,102758.06
2023-01-27T01:31:18.094Z,102751.34
2023-01-27T01:33:45.588Z,102764.97
2023-01-27T01:36:17.081Z,102764.88
2023-01-27T01:38:49.133Z,102764.97
2023-01-27T01:41:19.201Z,102764.78
2023-01-27T01:43:48.541Z,102764.78
2023-01-27T01:46:15.551Z,102767.31
2023-01-27T01:48:50.546Z,102759.59
2023-01-27T01:51:23.593Z,102762.16
2023-01-27T01:54:01.722Z,102760.41
2023-01-27T01:56:37.801Z,102766.41
2023-01-27T01:59:12.098Z,102766.41
2023-01-27T02:01:41.507Z,102767.31
2023-01-27T02:04:17.097Z,102765.69
2023-01-27T02:06:53.036Z,102777.69
2023-01-27T02:09:21.643Z,102774.25
2023-01-27T02:11:48.477Z,102773.44
2023-01-27T02:14:17.574Z,102776.03
2023-01-27T02:16:44.828Z,102771.75
2023-01-27T02:19:24.807Z,102778.69
2023-01-27T02:21:55.642Z,102782.94
2023-01-27T02:24:30.626Z,102776.22
2023-01-27T02:26:57.555Z,102778.78
2023-01-27T02:29:25.724Z,102775.59
2023-01-27T02:31:56.514Z,102771.50
2023-01-27T02:34:30.982Z,102783.47
2023-01-27T02:37:02.825Z,102781.94
2023-01-27T02:39:37.436Z,102785.47
2023-01-27T02:42:07.891Z,102791.56
2023-01-27T02:44:34.809Z,102785.00
2023-01-27T02:47:06.098Z,102789.25
2023-01-27T02:49:33.089Z,102791.97
2023-01-27T02:52:02.309Z,102787.78
2023-01-27T02:54:30.362Z,102783.72
2023-01-27T02:56:57.186Z,102798.16
2023-01-27T02:59:24.027Z,102799.88
2023-01-27T03:01:50.811Z,102806.69
2023-01-27T03:04:17.671Z,102800.84
2023-01-27T03:06:44.572Z,102803.41
2023-01-27T03:09:11.551Z,102807.66
2023-01-27T03:11:56.975Z,102800.13
2023-01-27T03:14:42.253Z,102806.03
2023-01-27T03:17:27.427Z,102803.59
2023-01-27T03:19:55.305Z,102807.81
2023-01-27T03:22:23.300Z,102809.47
2023-01-27T03:24:49.742Z,102821.19
2023-01-27T03:27:16.373Z,102815.28
2023-01-27T03:29:57.296Z,102830.53
2023-01-27T03:32:26.956Z,102808.47
2023-01-27T03:34:54.284Z,102818.50
2023-01-27T03:37:39.063Z,102816.00
2023-01-27T03:40:25.177Z,102821.94
2023-01-27T03:43:13.774Z,102818.50
2023-01-27T03:46:00.654Z,102814.22
2023-01-27T03:48:28.678Z,102813.41
2023-01-27T03:50:59.295Z,102810.75
2023-01-27T03:53:31.243Z,102818.28
2023-01-27T03:55:58.070Z,102816.50
2023-01-27T03:58:26.427Z,102819.78
2023-01-27T04:00:54.850Z,102819.59
2023-01-27T04:03:41.501Z,102827.94
2023-01-27T04:06:29.891Z,102827.94
2023-01-27T04:08:57.740Z,102825.50
2023-01-27T04:11:43.471Z,102827.03
2023-01-27T04:14:11.459Z,102829.50
2023-01-27T04:16:38.885Z,102826.13
2023-01-27T04:19:07.287Z,102827.78
2023-01-27T04:21:36.795Z,102839.50
2023-01-27T04:24:04.874Z,102840.31
2023-01-27T04:26:34.772Z,102836.97
2023-01-27T04:29:22.304Z,102842.75
2023-01-27T04:31:49.588Z,102841.88
2023-01-27T04:34:16.840Z,102846.13
2023-01-27T04:36:45.700Z,102849.31
2023-01-27T04:39:15.946Z,102841.69
2023-01-27T04:41:45.648Z,102858.41
2023-01-27T04:44:15.485Z,102849.97
2023-01-27T04:46:42.296Z,102846.53
2023-01-27T04:49:08.886Z,102850.69
2023-01-27T04:51:35.635Z,102852.31
2023-01-27T04:54:03.996Z,102842.97
2023-01-27T04:56:32.765Z,102851.34
2023-01-27T04:59:12.310Z,102850.44
2023-01-27T05:01:39.245Z,102850.44
2023-01-27T05:04:06.155Z,102850.44
2023-01-27T05:06:33.378Z,102847.78
2023-01-27T05:09:01.673Z,102847.06
2023-01-27T05:11:28.288Z,102850.53
2023-01-27T05:13:55.091Z,102845.34
2023-01-27T05:16:24.446Z,102848.72
2023-01-27T05:18:53.127Z,102850.34
2023-01-27T05:21:25.716Z,102859.69
2023-01-27T05:23:54.796Z,102856.44
2023-01-27T05:26:25.063Z,102859.53
2023-01-27T05:28:54.405Z,102863.63
2023-01-27T05:31:27.111Z,102865.06
2023-01-27T05:33:55.397Z,102866.06
2023-01-27T05:36:25.070Z,102865.25
2023-01-27T05:38:52.706Z,102867.88
2023-01-27T05:41:19.837Z,102866.25
2023-01-27T05:43:56.125Z,102881.50
2023-01-27T05:46:25.914Z,102874.78
2023-01-27T05:48:54.685Z,102881.59
2023-01-27T05:51:25.936Z,102879.06
2023-01-27T05:53:54.095Z,102878.16
2023-01-27T05:56:26.536Z,102877.13
2023-01-27T05:58:58.037Z,102881.41
2023-01-27T06:01:30.308Z,102884.88
2023-01-27T06:03:57.688Z,102883.03
2023-01-27T06:06:28.932Z,102892.41
2023-01-27T06:08:55.586Z,102892.41
2023-01-27T06:11:24.465Z,102891.69
2023-01-27T06:13:53.031Z,102896.03
2023-01-27T06:16:21.570Z,102893.41
2023-01-27T06:18:48.892Z,102902.00
2023-01-27T06:21:16.702Z,102902.84
2023-01-27T06:23:43.395Z,102906.28
2023-01-27T06:26:13.833Z,102902.13
2023-01-27T06:28:40.609Z,102906.47
2023-01-27T06:31:16.073Z,102918.38
2023-01-27T06:33:43.243Z,102915.91
2023-01-27T06:36:12.714Z,102925.25
2023-01-27T06:38:39.435Z,102928.69
2023-01-27T06:41:06.662Z,102934.59
2023-01-27T06:43:33.861Z,102923.63
2023-01-27T06:46:01.372Z,102933.06
2023-01-27T06:48:32.027Z,102923.78
2023-01-27T06:50:58.824Z,102918.69
2023-01-27T06:53:25.768Z,102919.69
2023-01-27T06:56:02.531Z,102920.50
2023-01-27T06:58:29.645Z,102920.50
2023-01-27T07:00:57.548Z,102923.31
2023-01-27T07:03:25.255Z,102926.66
2023-01-27T07:05:53.771Z,102917.41
2023-01-27T07:08:20.652Z,102910.59
2023-01-27T07:10:52.462Z,102920.03
2023-01-27T07:13:20.635Z,102919.31
2023-01-27T07:15:53.592Z,102928.63
2023-01-27T07:18:20.377Z,102916.84
2023-01-27T07:20:46.893Z,102920.38
2023-01-27T07:23:16.029Z,102922.09
2023-01-27T07:25:44.701Z,102922.16
2023-01-27T07:28:12.616Z,102924.81
2023-01-27T07:30:39.501Z,102923.25
2023-01-27T07:33:12.401Z,102926.69
2023-01-27T07:35:39.759Z,102933.44
2023-01-27T07:38:07.142Z,102934.31
2023-01-27T07:40:34.900Z,102940.25
2023-01-27T07:43:03.082Z,102937.75
2023-01-27T07:45:31.488Z,102932.09
2023-01-27T07:48:05.157Z,102939.09
2023-01-27T07:50:32.284Z,102939.59
2023-01-27T07:53:03.780Z,102949.97
2023-01-27T07:55:33.400Z,102944.25
2023-01-27T07:58:00.411Z,102950.47
2023-01-27T08:00:29.678Z,102949.47
2023-01-27T08:03:00.439Z,102955.78
2023-01-27T08:05:28.214Z,102953.88
2023-01-27T08:07:58.579Z,102965.97
2023-01-27T08:10:25.533Z,102957.91
2023-01-27T08:12:56.483Z,102965.56
2023-01-27T08:15:23.384Z,102961.50
2023-01-27T08:17:54.837Z,102957.09
2023-01-27T08:20:25.099Z,102961.63
2023-01-27T08:22:52.522Z,102961.16
2023-01-27T08:25:19.446Z,102970.72
2023-01-27T08:27:50.020Z,102969.81
2023-01-27T08:30:17.291Z,102969.53
2023-01-27T08:32:44.115Z,102958.19
2023-01-27T08:35:10.985Z,102961.78
2023-01-27T08:37:37.922Z,102975.56
2023-01-27T08:40:04.824Z,102960.25
2023-01-27T08:42:32.739Z,102966.44
2023-01-27T08:45:00.481Z,102970.06
2023-01-27T08:47:28.656Z,102965.00
2023-01-27T08:49:55.226Z,102968.88
2023-01-27T08:52:24.402Z,102974.06
2023-01-27T08:54:50.870Z,102970.81
2023-01-27T08:57:17.745Z,102965.56
2023-01-27T08:59:48.876Z,102978.28
2023-01-27T09:02:15.523Z,102974.97
2023-01-27T09:04:46.901Z,102978.41
2023-01-27T09:07:18.619Z,102986.38
2023-01-27T09:09:48.704Z,102984.97
2023-01-27T09:12:15.860Z,103003.50
2023-01-27T09:14:42.530Z,102996.78
2023-01-27T09:17:10.708Z,103002.34
2023-01-27T09:19:37.581Z,102998.47
2023-01-27T09:22:05.566Z,103011.91
2023-01-27T09:24:32.373Z,103007.06
2023-01-27T09:27:00.984Z,103019.25
2023-01-27T09:29:28.154Z,103024.75
2023-01-27T09:31:56.286Z,103021.47
2023-01-27T09:34:23.172Z,103032.63
2023-01-27T09:36:55.083Z,103022.81
2023-01-27T09:39:23.283Z,103023.25
2023-01-27T09:41:55.688Z,103026.25
2023-01-27T09:45:02.056Z,103029.16
2023-01-27T09:47:47.689Z,103038.06
2023-01-27T09:50:26.642Z,103036.44
2023-01-27T09:53:16.874Z,103027.94
2023-01-27T09:56:04.069Z,103027.63
2023-01-27T09:59:04.820Z,103037.59
2023-01-27T10:01:43.540Z,103029.56
2023-01-27T10:04:41.181Z,103033.19
2023-01-27T10:07:13.665Z,103029.16
2023-01-27T10:09:49.689Z,103031.78
2023-01-27T10:12:37.823Z,103029.97
2023-01-27T10:15:10.365Z,103031.63
2023-01-27T10:18:01.759Z,103026.72
2023-01-27T10:21:00.884Z,103030.06
2023-01-27T10:23:51.769Z,103039.28
2023-01-27T10:26:44.632Z,103043.25
2023-01-27T10:29:29.967Z,103037.34
2023-01-27T10:32:01.629Z,103033.19
2023-01-27T10:34:36.100Z,103048.34
2023-01-27T10:37:29.536Z,103043.25
2023-01-27T10:40:31.546Z,103047.19
2023-01-27T10:43:07.101Z,103042.09
2023-01-27T10:45:42.374Z,103048.00
2023-01-27T10:48:33.901Z,103050.50
2023-01-27T10:51:37.963Z,103050.16
2023-01-27T10:54:08.581Z,103042.66
2023-01-27T10:56:59.765Z,103048.50
2023-01-27T10:59:40.969Z,103047.69
2023-01-27T11:02:37.844Z,103046.69
2023-01-27T11:05:13.656Z,103040.78
2023-01-27T11:07:57.393Z,103040.53
2023-01-27T11:10:35.658Z,103037.75
2023-01-27T11:13:04.082Z,103035.25
2023-01-27T11:15:34.466Z,103033.63
2023-01-27T11:18:23.778Z,103033.72
2023-01-27T11:20:54.607Z,103032.66
2023-01-27T11:23:27.375Z,103027.00
2023-01-27T11:26:06.044Z,103028.78
2023-01-27T11:28:44.889Z,103019.25
2023-01-27T11:31:59.379Z,103027.81
2023-01-27T11:34:41.385Z,103021.97
2023-01-27T11:37:39.946Z,103024.69
2023-01-27T11:40:30.328Z,103022.88
2023-01-27T11:43:01.159Z,103013.50
2023-01-27T11:45:33.614Z,103010.81
2023-01-27T11:48:02.702Z,103009.75
2023-01-27T11:50:36.723Z,103007.19
2023-01-27T11:53:30.100Z,103002.81
2023-01-27T11:56:04.201Z,102998.19
2023-01-27T11:58:39.032Z,102999.94
2023-01-27T12:01:20.054Z,102996.88
2023-01-27T12:04:11.937Z,102998.78
2023-01-27T12:06:45.157Z,102995.16
2023-01-27T12:09:38.162Z,102991.59
2023-01-27T12:12:17.143Z,102998.25
2023-01-27T12:14:58.988Z,102984.63
2023-01-27T12:17:35.307Z,102999.53
2023-01-27T12:20:22.410Z,102987.53
2023-01-27T12:22:55.330Z,102982.25
2023-01-27T12:25:31.452Z,102982.25
2023-01-27T12:28:05.660Z,102983.69
2023-01-27T12:30:39.119Z,102986.53
2023-01-27T12:33:20.061Z,102977.34
2023-01-27T12:35:50.136Z,102973.31
2023-01-27T12:38:21.106Z,102973.41
2023-01-27T12:40:50.774Z,102972.88
2023-01-27T12:43:20.506Z,102971.50
2023-01-27T12:46:04.227Z,102965.69
2023-01-27T12:48:33.639Z,102970.94
2023-01-27T12:51:15.695Z,102969.97
2023-01-27T12:53:44.583Z,102974.97
2023-01-27T12:56:22.943Z,102972.41
2023-01-27T12:58:55.608Z,102969.97
2023-01-27T13:01:35.183Z,102969.16
2023-01-27T13:04:16.725Z,102962.34
2023-01-27T13:06:48.113Z,102960.66
2023-01-27T13:09:33.674Z,102964.78
2023-01-27T13:12:05.925Z,102953.41
2023-01-27T13:14:40.934Z,102960.78
2023-01-27T13:17:28.341Z,102964.06
2023-01-27T13:20:01.967Z,102960.53
2023-01-27T13:22:33.303Z,102961.59
2023-01-27T13:25:06.195Z,102961.59
2023-01-27T13:27:40.102Z,102970.16
2023-01-27T13:30:20.328Z,102965.88
2023-01-27T13:32:51.749Z,102965.88
2023-01-27T13:35:41.896Z,102963.75
2023-01-27T13:38:26.487Z,102968.16
2023-01-27T13:40:54.341Z,102964.78
2023-01-27T13:43:39.937Z,102970.03
2023-01-27T13:46:26.169Z,102961.78
2023-01-27T13:48:59.195Z,102965.25
2023-01-27T13:51:29.694Z,102971.06
2023-01-27T13:54:02.780Z,102970.22
2023-01-27T13:57:08.204Z,102973.69
2023-01-27T13:59:40.522Z,102977.06
2023-01-27T14:02:07.222Z,102971.97
2023-01-27T14:04:36.853Z,102968.50
2023-01-27T14:07:28.227Z,102969.31
2023-01-27T14:10:22.140Z,102971.88
2023-01-27T14:13:03.770Z,102982.22
2023-01-27T14:15:50.540Z,102974.56
2023-01-27T14:18:31.247Z,102975.44
2023-01-27T14:21:21.020Z,102983.31
2023-01-27T14:23:54.492Z,102995.41
2023-01-27T14:26:48.610Z,102998.03
2023-01-27T14:29:27.569Z,102990.41
2023-01-27T14:31:59.393Z,102996.72
2023-01-27T14:34:41.042Z,103002.09
2023-01-27T14:37:22.388Z,103004.00
2023-01-27T14:40:09.231Z,103007.44
2023-01-27T14:43:03.155Z,103008.28
2023-01-27T14:46:03.390Z,103003.34
2023-01-27T14:48:41.723Z,103010.06
2023-01-27T14:51:13.355Z,103016.06
2023-01-27T14:54:01.703Z,103006.97
2023-01-27T14:56:59.439Z,103011.22
2023-01-27T14:59:38.227Z,103010.69
2023-01-27T15:02:35.938Z,103010.75
2023-01-27T15:05:37.143Z,103012.72
2023-01-27T15:08:34.564Z,103014.56
2023-01-27T15:11:32.580Z,103019.56
2023-01-27T15:14:08.138Z,103019.56
2023-01-27T15:17:08.774Z,103011.28
2023-01-27T15:19:47.655Z,103020.47
2023-01-27T15:22:20.850Z,103031.53
2023-01-27T15:24:59.695Z,103040.00
2023-01-27T15:27:29.062Z,103035.00
2023-01-27T15:29:55.726Z,103036.63
2023-01-27T15:32:28.467Z,103041.72
2023-01-27T15:35:30.518Z,103047.63
2023-01-27T15:38:08.628Z,103040.97
2023-01-27T15:41:17.858Z,103044.41
2023-01-27T15:44:15.555Z,103042.69
2023-01-27T15:46:50.068Z,103040.25
2023-01-27T15:49:24.846Z,103044.50
2023-01-27T15:51:55.134Z,103040.34
2023-01-27T15:54:30.426Z,103036.16
2023-01-27T15:56:58.501Z,103037.88
2023-01-27T15:59:31.795Z,103042.06
2023-01-27T16:02:29.196Z,103041.25
2023-01-27T16:05:07.529Z,103035.41
2023-01-27T16:07:38.039Z,103032.94
2023-01-27T16:10:07.807Z,103030.50
2023-01-27T16:12:45.176Z,103035.66
2023-01-27T16:15:15.004Z,103036.56
2023-01-27T16:18:02.801Z,103038.38
2023-01-27T16:20:32.572Z,103033.28
2023-01-27T16:23:11.334Z,103037.72
2023-01-27T16:25:44.461Z,103038.63
2023-01-27T16:28:19.392Z,103042.16
2023-01-27T16:30:49.295Z,103059.22
2023-01-27T16:33:38.303Z,103058.47
2023-01-27T16:36:17.043Z,103066.13
2023-01-27T16:38:45.648Z,103066.13
2023-01-27T16:41:20.123Z,103064.38
2023-01-27T16:44:11.235Z,103063.56
2023-01-27T16:46:41.673Z,103067.91
2023-01-27T16:49:37.379Z,103064.47
2023-01-27T16:52:08.495Z,103072.91
2023-01-27T16:54:40.616Z,103073.75
2023-01-27T16:57:11.217Z,103076.28
2023-01-27T16:59:40.466Z,103075.53
2023-01-27T17:02:30.498Z,103077.25
2023-01-27T17:05:01.324Z,103073.88
2023-01-27T17:07:28.147Z,103079.88
2023-01-27T17:10:00.381Z,103079.88
2023-01-27T17:12:31.720Z,103090.97
2023-01-27T17:15:00.000Z,103091.06
2023-01-27T17:17:29.506Z,103084.25
2023-01-27T17:20:05.448Z,103094.41
2023-01-27T17:22:39.545Z,103091.88
2023-01-27T17:25:22.349Z,103100.38
2023-01-27T17:27:48.870Z,103094.56
2023-01-27T17:30:39.861Z,103109.00
2023-01-27T17:33:15.815Z,103104.72
2023-01-27T17:35:44.062Z,103104.81
2023-01-27T17:38:24.876Z,103107.44
2023-01-27T17:40:57.382Z,103107.44
2023-01-27T17:43:40.517Z,103114.31
2023-01-27T17:46:19.814Z,103117.75
2023-01-27T17:49:08.314Z,103119.56
2023-01-27T17:51:39.448Z,103121.28
2023-01-27T17:54:19.322Z,103117.91
2023-01-27T17:56:46.490Z,103130.72
2023-01-27T17:59:21.212Z,103128.91
2023-01-27T18:01:52.080Z,103128.25
2023-01-27T18:04:23.386Z,103139.25
2023-01-27T18:06:51.298Z,103139.25
2023-01-27T18:09:21.089Z,103143.50
2023-01-27T18:11:56.918Z,103148.72
2023-01-27T18:14:24.193Z,103145.38
2023-01-27T18:17:22.567Z,103159.91
2023-01-27T18:19:51.716Z,103150.69
2023-01-27T18:22:19.442Z,103160.84
2023-01-27T18:24:55.857Z,103155.84
2023-01-27T18:27:24.359Z,103159.31
2023-01-27T18:29:54.444Z,103159.38
2023-01-27T18:32:25.700Z,103163.63
2023-01-27T18:34:58.444Z,103161.16
2023-01-27T18:37:25.078Z,103167.97
2023-01-27T18:39:55.238Z,103161.34
2023-01-27T18:42:24.017Z,103163.06
2023-01-27T18:44:52.147Z,103161.34
2023-01-27T18:47:20.870Z,103169.78
2023-01-27T18:50:14.865Z,103171.50
2023-01-27T18:52:42.476Z,103173.22
2023-01-27T18:55:26.406Z,103172.38
2023-01-27T18:57:56.028Z,103176.59
2023-01-27T19:00:25.639Z,103175.69
2023-01-27T19:02:56.363Z,103190.94
2023-01-27T19:05:26.541Z,103185.09
2023-01-27T19:07:53.384Z,103174.09
2023-01-27T19:10:28.635Z,103172.38
2023-01-27T19:12:58.632Z,103179.19
2023-01-27T19:15:31.906Z,103179.25
2023-01-27T19:18:07.303Z,103176.72
2023-01-27T19:20:36.137Z,103178.44
2023-01-27T19:23:02.940Z,103179.34
2023-01-27T19:25:31.037Z,103176.81
2023-01-27T19:28:07.367Z,103179.34
2023-01-27T19:30:38.433Z,103176.03
2023-01-27T19:33:17.506Z,103182.84
2023-01-27T19:35:49.103Z,103185.47
2023-01-27T19:38:15.978Z,103188.84
2023-01-27T19:40:43.279Z,103177.78
2023-01-27T19:43:15.048Z,103188.84
2023-01-27T19:45:44.472Z,103187.19
2023-01-27T19:48:20.030Z,103189.81
2023-01-27T19:50:47.647Z,103189.81
2023-01-27T19:53:17.399Z,103190.78
2023-01-27T19:55:45.566Z,103195.88
2023-01-27T19:58:32.804Z,103195.03
2023-01-27T20:00:59.439Z,103193.31
2023-01-27T20:03:27.081Z,103188.25
2023-01-27T20:05:54.121Z,103187.50
2023-01-27T20:08:21.648Z,103187.59
2023-01-27T20:10:48.316Z,103190.13
2023-01-27T20:13:19.304Z,103189.38
2023-01-27T20:15:47.327Z,103187.72
2023-01-27T20:18:18.837Z,103194.53
2023-01-27T20:20:50.593Z,103185.28
2023-01-27T20:23:17.329Z,103194.66
2023-01-27T20:25:43.857Z,103198.88
2023-01-27T20:28:12.444Z,103195.66
2023-01-27T20:30:38.995Z,103194.88
2023-01-27T20:33:05.572Z,103190.69
2023-01-27T20:35:32.387Z,103190.69
2023-01-27T20:37:59.129Z,103192.44
2023-01-27T20:40:29.591Z,103180.75
2023-01-27T20:42:56.595Z,103185.03
2023-01-27T20:45:23.464Z,103184.28
2023-01-27T20:47:52.134Z,103192.72
2023-01-27T20:50:19.907Z,103184.50
2023-01-27T20:52:50.184Z,103191.31
2023-01-27T20:55:19.847Z,103195.56
2023-01-27T20:57:47.475Z,103195.69
2023-01-27T21:00:20.534Z,103194.13
2023-01-27T21:02:47.974Z,103192.56
2023-01-27T21:05:17.832Z,103196.81
2023-01-27T21:07:45.169Z,103194.34
2023-01-27T21:10:12.002Z,103206.16
2023-01-27T21:12:38.537Z,103204.50
2023-01-27T21:15:09.719Z,103193.53
2023-01-27T21:17:39.551Z,103187.72
2023-01-27T21:20:07.039Z,103191.97
2023-01-27T21:22:34.547Z,103189.44
2023-01-27T21:25:01.274Z,103181.88
2023-01-27T21:27:27.744Z,103191.28
2023-01-27T21:29:54.278Z,103191.38
2023-01-27T21:32:23.129Z,103185.44
2023-01-27T21:34:51.539Z,103186.28
2023-01-27T21:37:18.141Z,103177.91
2023-01-27T21:39:44.866Z,103177.91
2023-01-27T21:42:14.744Z,103180.31
2023-01-27T21:45:00.318Z,103172.69
2023-01-27T21:47:27.022Z,103169.34
2023-01-27T21:50:03.318Z,103169.25
2023-01-27T21:52:41.966Z,103173.53
2023-01-27T21:55:11.232Z,103169.13
2023-01-27T21:57:38.597Z,103169.19
2023-01-27T22:00:08.321Z,103160.97
2023-01-27T22:02:36.272Z,103161.84
2023-01-27T22:05:02.992Z,103156.69
2023-01-27T22:07:38.442Z,103153.44
2023-01-27T22:10:08.157Z,103157.69
2023-01-27T22:12:35.000Z,103160.22
2023-01-27T22:15:02.048Z,103168.13
2023-01-27T22:17:31.088Z,103163.13
2023-01-27T22:19:57.958Z,103161.34
2023-01-27T22:22:24.809Z,103166.41
2023-01-27T22:24:51.641Z,103158.88
2023-01-27T22:27:19.374Z,103163.06
2023-01-27T22:29:48.552Z,103168.06
2023-01-27T22:32:18.459Z,103161.34
2023-01-27T22:34:46.144Z,103156.34
2023-01-27T22:37:12.611Z,103168.34
2023-01-27T22:39:42.513Z,103160.72
2023-01-27T22:42:09.945Z,103153.19
2023-01-27T22:44:36.490Z,103153.13
2023-01-27T22:47:05.778Z,103157.44
2023-01-27T22:49:34.714Z,103156.84
2023-01-27T22:52:01.703Z,103157.66
2023-01-27T22:54:30.583Z,103148.63
2023-01-27T22:57:01.057Z,103144.50
2023-01-27T22:59:27.901Z,103150.25
2023-01-27T23:01:56.039Z,103151.28
2023-01-27T23:04:22.670Z,103152.09
2023-01-27T23:06:51.725Z,103152.56
2023-01-27T23:09:18.527Z,103148.44
2023-01-27T23:11:45.357Z,103156.94
2023-01-27T23:14:15.145Z,103157.69
2023-01-27T23:16:41.775Z,103161.00
2023-01-27T23:19:08.518Z,103158.28
2023-01-27T23:21:35.964Z,103167.50
2023-01-27T23:24:07.308Z,103175.22
2023-01-27T23:26:34.133Z,103172.78
2023-01-27T23:29:23.061Z,103171.13
2023-01-27T23:31:51.252Z,103167.69
2023-01-27T23:34:23.541Z,103161.84
2023-01-27T23:36:50.466Z,103152.69
2023-01-27T23:39:17.231Z,103162.00
2023-01-27T23:41:43.794Z,103161.19
2023-01-27T23:44:12.447Z,103163.72
2023-01-27T23:46:39.399Z,103169.63
2023-01-27T23:49:06.612Z,103167.00
2023-01-27T23:51:33.744Z,103161.81
2023-01-27T23:54:00.523Z,103166.69
2023-01-27T23:56:27.039Z,103169.25
2023-01-27T23:58:53.960Z,103165.25
